Time,TemperatureF,DewpointF,PressureIn,WindDirection,WindDirectionDegrees,WindSpeedMPH,WindSpeedGustMPH,Humidity,HourlyPrecipIn,Conditions,Clouds,dailyrainin,SolarRadiationWatts/m^2,SoftwareType,DateUTC
2013-03-15 00:02:00,38.0,18.0,-100.00,ESE,111,3.0,6.0,44,0.00,,,0.00,0.000000,,2013-03-15 06:02:00,
2013-03-15 00:12:00,38.0,18.0,-100.00,ESE,111,3.0,6.0,44,0.00,,,0.00,0.000000,,2013-03-15 06:12:00,
2013-03-15 00:22:00,38.0,18.0,-100.00,ESE,111,3.0,6.0,44,0.00,,,0.00,0.000000,,2013-03-15 06:22:00,
2013-03-15 00:32:00,38.0,18.0,-100.00,ESE,111,3.0,6.0,44,0.00,,,0.00,0.000000,,2013-03-15 06:32:00,
2013-03-15 00:53:00,35.0,17.0,-100.00,NNE,33,3.0,6.0,48,0.00,,,0.00,0.000000,,2013-03-15 06:53:00,
2013-03-15 01:02:00,35.0,17.0,-100.00,NNE,33,3.0,6.0,48,0.00,,,0.00,0.000000,,2013-03-15 07:02:00,
2013-03-15 01:12:00,35.0,17.0,-100.00,NNE,33,3.0,6.0,48,0.00,,,0.00,0.000000,,2013-03-15 07:12:00,
2013-03-15 01:22:00,35.0,17.0,-100.00,NNE,33,3.0,6.0,48,0.00,,,0.00,0.000000,,2013-03-15 07:22:00,
2013-03-15 01:52:00,34.0,20.0,-100.00,East,86,3.0,6.0,57,0.00,,,0.00,0.000000,,2013-03-15 07:52:00,
2013-03-15 02:02:00,34.0,20.0,-100.00,East,86,3.0,6.0,57,0.00,,,0.00,0.000000,,2013-03-15 08:02:00,
2013-03-15 02:12:00,34.0,20.0,-100.00,East,86,3.0,6.0,57,0.00,,,0.00,0.000000,,2013-03-15 08:12:00,
2013-03-15 02:23:00,34.0,20.0,-100.00,East,86,3.0,6.0,57,0.00,,,0.00,0.000000,,2013-03-15 08:23:00,
2013-03-15 02:32:00,34.0,20.0,-100.00,East,86,3.0,6.0,57,0.00,,,0.00,0.000000,,2013-03-15 08:32:00,
2013-03-15 02:52:00,32.0,18.0,-100.00,SE,125,4.0,7.0,55,0.00,,,0.00,0.000000,,2013-03-15 08:52:00,
2013-03-15 03:02:00,32.0,18.0,-100.00,SE,125,4.0,7.0,55,0.00,,,0.00,0.000000,,2013-03-15 09:02:00,
2013-03-15 03:12:00,32.0,18.0,-100.00,SE,125,4.0,7.0,55,0.00,,,0.00,0.000000,,2013-03-15 09:12:00,
2013-03-15 03:22:00,32.0,18.0,-100.00,SE,125,4.0,7.0,55,0.00,,,0.00,0.000000,,2013-03-15 09:22:00,
2013-03-15 03:33:00,32.0,18.0,-100.00,SE,125,4.0,7.0,55,0.00,,,0.00,0.000000,,2013-03-15 09:33:00,
2013-03-15 03:53:00,32.0,18.0,-100.00,SE,131,3.0,10.0,56,0.00,,,0.00,0.000000,,2013-03-15 09:53:00,
2013-03-15 04:03:00,32.0,18.0,-100.00,SE,131,3.0,10.0,56,0.00,,,0.00,0.000000,,2013-03-15 10:03:00,
2013-03-15 04:12:00,32.0,18.0,-100.00,SE,131,3.0,10.0,56,0.00,,,0.00,0.000000,,2013-03-15 10:12:00,
2013-03-15 04:23:00,32.0,18.0,-100.00,SE,131,3.0,10.0,56,0.00,,,0.00,0.000000,,2013-03-15 10:23:00,
2013-03-15 04:33:00,32.0,18.0,-100.00,SE,131,3.0,10.0,56,0.00,,,0.00,0.000000,,2013-03-15 10:33:00,
2013-03-15 04:52:00,31.0,20.0,-100.00,ESE,118,2.0,6.0,62,0.00,,,0.00,0.000000,,2013-03-15 10:52:00,
2013-03-15 05:03:00,31.0,20.0,-100.00,ESE,118,2.0,6.0,62,0.00,,,0.00,0.000000,,2013-03-15 11:03:00,
2013-03-15 05:12:00,31.0,20.0,-100.00,ESE,118,2.0,6.0,62,0.00,,,0.00,0.000000,,2013-03-15 11:12:00,
2013-03-15 05:22:00,31.0,20.0,-100.00,ESE,118,2.0,6.0,62,0.00,,,0.00,0.000000,,2013-03-15 11:22:00,
2013-03-15 05:32:00,31.0,20.0,-100.00,ESE,118,2.0,6.0,62,0.00,,,0.00,0.000000,,2013-03-15 11:32:00,
2013-03-15 05:52:00,30.0,20.0,-100.00,East,88,3.0,5.0,67,0.00,,,0.00,0.000000,,2013-03-15 11:52:00,
2013-03-15 06:02:00,30.0,20.0,-100.00,East,88,3.0,5.0,67,0.00,,,0.00,0.000000,,2013-03-15 12:02:00,
2013-03-15 06:12:00,30.0,20.0,-100.00,East,88,3.0,5.0,67,0.00,,,0.00,0.000000,,2013-03-15 12:12:00,
2013-03-15 06:23:00,30.0,20.0,-100.00,East,88,3.0,5.0,67,0.00,,,0.00,0.000000,,2013-03-15 12:23:00,
2013-03-15 06:32:00,30.0,20.0,-100.00,East,88,3.0,5.0,67,0.00,,,0.00,0.000000,,2013-03-15 12:32:00,
2013-03-15 06:52:00,30.0,20.0,-100.00,West,266,0.0,4.0,65,0.00,,,0.00,0.000000,,2013-03-15 12:52:00,
2013-03-15 07:02:00,30.0,20.0,-100.00,West,266,0.0,4.0,65,0.00,,,0.00,0.000000,,2013-03-15 13:02:00,
2013-03-15 07:12:00,30.0,20.0,-100.00,West,266,0.0,4.0,65,0.00,,,0.00,0.000000,,2013-03-15 13:12:00,
2013-03-15 07:22:00,30.0,20.0,-100.00,West,266,0.0,4.0,65,0.00,,,0.00,0.000000,,2013-03-15 13:22:00,
2013-03-15 07:32:00,30.0,20.0,-100.00,West,266,0.0,4.0,65,0.00,,,0.00,0.000000,,2013-03-15 13:32:00,
2013-03-15 07:53:00,31.0,22.0,-100.00,East,91,2.0,4.0,68,0.00,,,0.00,5.000000,,2013-03-15 13:53:00,
2013-03-15 08:02:00,31.0,22.0,-100.00,East,91,2.0,4.0,68,0.00,,,0.00,5.000000,,2013-03-15 14:02:00,
2013-03-15 08:12:00,31.0,22.0,-100.00,East,91,2.0,4.0,68,0.00,,,0.00,5.000000,,2013-03-15 14:12:00,
2013-03-15 08:22:00,31.0,22.0,-100.00,East,91,2.0,4.0,68,0.00,,,0.00,5.000000,,2013-03-15 14:22:00,
2013-03-15 08:32:00,31.0,22.0,-100.00,East,91,2.0,4.0,68,0.00,,,0.00,5.000000,,2013-03-15 14:32:00,
2013-03-15 08:53:00,36.0,25.0,-100.00,ESE,112,4.0,5.0,63,0.00,,,0.00,67.000000,,2013-03-15 14:53:00,
2013-03-15 09:02:00,36.0,25.0,-100.00,ESE,112,4.0,5.0,63,0.00,,,0.00,67.000000,,2013-03-15 15:02:00,
2013-03-15 09:13:00,36.0,25.0,-100.00,ESE,112,4.0,5.0,63,0.00,,,0.00,67.000000,,2013-03-15 15:13:00,
2013-03-15 09:23:00,36.0,25.0,-100.00,ESE,112,4.0,5.0,63,0.00,,,0.00,67.000000,,2013-03-15 15:23:00,
2013-03-15 09:33:00,36.0,25.0,-100.00,ESE,112,4.0,5.0,63,0.00,,,0.00,67.000000,,2013-03-15 15:33:00,
2013-03-15 09:53:00,46.0,25.0,-100.00,WSW,248,2.0,4.0,44,0.00,,,0.00,304.000000,,2013-03-15 15:53:00,
2013-03-15 10:03:00,46.0,25.0,-100.00,WSW,248,2.0,4.0,44,0.00,,,0.00,304.000000,,2013-03-15 16:03:00,
2013-03-15 10:12:00,46.0,25.0,-100.00,WSW,248,2.0,4.0,44,0.00,,,0.00,304.000000,,2013-03-15 16:12:00,
2013-03-15 10:22:00,46.0,25.0,-100.00,WSW,248,2.0,4.0,44,0.00,,,0.00,304.000000,,2013-03-15 16:22:00,
2013-03-15 10:32:00,46.0,25.0,-100.00,WSW,248,2.0,4.0,44,0.00,,,0.00,304.000000,,2013-03-15 16:32:00,
2013-03-15 10:52:00,51.0,25.0,-100.00,NNE,12,2.0,5.0,36,0.00,,,0.00,397.000000,,2013-03-15 16:52:00,
2013-03-15 11:02:00,51.0,25.0,-100.00,NNE,12,2.0,5.0,36,0.00,,,0.00,397.000000,,2013-03-15 17:02:00,
2013-03-15 11:12:00,51.0,25.0,-100.00,NNE,12,2.0,5.0,36,0.00,,,0.00,397.000000,,2013-03-15 17:12:00,
2013-03-15 11:22:00,51.0,25.0,-100.00,NNE,12,2.0,5.0,36,0.00,,,0.00,397.000000,,2013-03-15 17:22:00,
2013-03-15 11:32:00,51.0,25.0,-100.00,NNE,12,2.0,5.0,36,0.00,,,0.00,397.000000,,2013-03-15 17:32:00,
2013-03-15 11:53:00,60.0,20.0,-100.00,NNW,346,3.0,6.0,21,0.00,,,0.00,652.000000,,2013-03-15 17:53:00,
2013-03-15 12:02:00,60.0,20.0,-100.00,NNW,346,3.0,6.0,21,0.00,,,0.00,652.000000,,2013-03-15 18:02:00,
2013-03-15 12:12:00,60.0,20.0,-100.00,NNW,346,3.0,6.0,21,0.00,,,0.00,652.000000,,2013-03-15 18:12:00,
2013-03-15 12:22:00,60.0,20.0,-100.00,NNW,346,3.0,6.0,21,0.00,,,0.00,652.000000,,2013-03-15 18:22:00,
2013-03-15 12:32:00,60.0,20.0,-100.00,NNW,346,3.0,6.0,21,0.00,,,0.00,652.000000,,2013-03-15 18:32:00,
2013-03-15 12:52:00,64.0,18.0,-100.00,WSW,247,4.0,7.0,17,0.00,,,0.00,796.000000,,2013-03-15 18:52:00,
2013-03-15 13:02:00,64.0,18.0,-100.00,WSW,247,4.0,7.0,17,0.00,,,0.00,796.000000,,2013-03-15 19:02:00,
2013-03-15 13:12:00,64.0,18.0,-100.00,WSW,247,4.0,7.0,17,0.00,,,0.00,796.000000,,2013-03-15 19:12:00,
2013-03-15 13:22:00,64.0,18.0,-100.00,WSW,247,4.0,7.0,17,0.00,,,0.00,796.000000,,2013-03-15 19:22:00,
2013-03-15 13:32:00,64.0,18.0,-100.00,WSW,247,4.0,7.0,17,0.00,,,0.00,796.000000,,2013-03-15 19:32:00,
2013-03-15 13:52:00,67.0,16.0,-100.00,WSW,243,4.0,11.0,14,0.00,,,-99.99,833.000000,,2013-03-15 19:52:00,
2013-03-15 14:02:00,67.0,16.0,-100.00,WSW,243,4.0,11.0,14,0.00,,,-99.99,833.000000,,2013-03-15 20:02:00,
2013-03-15 14:12:00,67.0,16.0,-100.00,WSW,243,4.0,11.0,14,0.00,,,-99.99,833.000000,,2013-03-15 20:12:00,
2013-03-15 14:22:00,67.0,16.0,-100.00,WSW,243,4.0,11.0,14,0.00,,,-99.99,833.000000,,2013-03-15 20:22:00,
2013-03-15 14:32:00,67.0,16.0,-100.00,WSW,243,4.0,11.0,14,0.00,,,-99.99,833.000000,,2013-03-15 20:32:00,
2013-03-15 14:52:00,69.0,18.0,-100.00,WSW,241,10.0,17.0,14,0.00,,,0.00,799.000000,,2013-03-15 20:52:00,
2013-03-15 15:02:00,69.0,18.0,-100.00,WSW,241,10.0,17.0,14,0.00,,,0.00,799.000000,,2013-03-15 21:02:00,
2013-03-15 15:12:00,69.0,18.0,-100.00,WSW,241,10.0,17.0,14,0.00,,,0.00,799.000000,,2013-03-15 21:12:00,
2013-03-15 15:22:00,69.0,18.0,-100.00,WSW,241,10.0,17.0,14,0.00,,,0.00,799.000000,,2013-03-15 21:22:00,
2013-03-15 15:33:00,69.0,18.0,-100.00,WSW,241,10.0,17.0,14,0.00,,,0.00,799.000000,,2013-03-15 21:33:00,
2013-03-15 15:53:00,70.0,13.0,-100.00,West,276,16.0,25.0,11,0.00,,,-99.99,744.000000,,2013-03-15 21:53:00,
2013-03-15 16:03:00,70.0,13.0,-100.00,West,276,16.0,25.0,11,0.00,,,-99.99,744.000000,,2013-03-15 22:03:00,
2013-03-15 16:13:00,70.0,13.0,-100.00,West,276,16.0,25.0,11,0.00,,,-99.99,744.000000,,2013-03-15 22:13:00,
2013-03-15 16:22:00,70.0,13.0,-100.00,West,276,16.0,25.0,11,0.00,,,-99.99,744.000000,,2013-03-15 22:22:00,
2013-03-15 16:32:00,70.0,13.0,-100.00,West,276,16.0,25.0,11,0.00,,,-99.99,744.000000,,2013-03-15 22:32:00,
2013-03-15 16:53:00,66.0,14.0,-100.00,NW,305,13.0,25.0,13,0.00,,,0.00,375.000000,,2013-03-15 22:53:00,
2013-03-15 17:02:00,66.0,14.0,-100.00,NW,305,13.0,25.0,13,0.00,,,0.00,375.000000,,2013-03-15 23:02:00,
2013-03-15 17:12:00,66.0,14.0,-100.00,NW,305,13.0,25.0,13,0.00,,,0.00,375.000000,,2013-03-15 23:12:00,
2013-03-15 17:22:00,66.0,14.0,-100.00,NW,305,13.0,25.0,13,0.00,,,0.00,375.000000,,2013-03-15 23:22:00,
2013-03-15 17:32:00,66.0,14.0,-100.00,NW,305,13.0,25.0,13,0.00,,,0.00,375.000000,,2013-03-15 23:32:00,
2013-03-15 17:53:00,65.0,15.0,-100.00,NW,318,12.0,21.0,14,0.00,,,0.00,110.000000,,2013-03-15 23:53:00,
2013-03-15 18:02:00,65.0,15.0,-100.00,NW,318,12.0,21.0,14,0.00,,,0.00,110.000000,,2013-03-16 00:02:00,
2013-03-15 18:12:00,65.0,15.0,-100.00,NW,318,12.0,21.0,14,0.00,,,0.00,110.000000,,2013-03-16 00:12:00,
2013-03-15 18:22:00,65.0,15.0,-100.00,NW,318,12.0,21.0,14,0.00,,,0.00,110.000000,,2013-03-16 00:22:00,
2013-03-15 18:32:00,65.0,15.0,-100.00,NW,318,12.0,21.0,14,0.00,,,0.00,110.000000,,2013-03-16 00:32:00,
2013-03-15 18:52:00,64.0,10.0,-100.00,WNW,295,9.0,19.0,12,0.00,,,0.00,60.000000,,2013-03-16 00:52:00,
2013-03-15 19:02:00,64.0,10.0,-100.00,WNW,295,9.0,19.0,12,0.00,,,0.00,60.000000,,2013-03-16 01:02:00,
2013-03-15 19:12:00,64.0,10.0,-100.00,WNW,295,9.0,19.0,12,0.00,,,0.00,60.000000,,2013-03-16 01:12:00,
2013-03-15 19:21:00,64.0,10.0,-100.00,WNW,295,9.0,19.0,12,0.00,,,0.00,60.000000,,2013-03-16 01:21:00,
2013-03-15 19:32:00,64.0,10.0,-100.00,WNW,295,9.0,19.0,12,0.00,,,0.00,60.000000,,2013-03-16 01:32:00,
2013-03-15 19:53:00,61.0,10.0,-100.00,WNW,289,8.0,19.0,13,0.00,,,0.00,7.000000,,2013-03-16 01:53:00,
2013-03-15 20:02:00,61.0,10.0,-100.00,WNW,289,8.0,19.0,13,0.00,,,0.00,7.000000,,2013-03-16 02:02:00,
2013-03-15 20:12:00,61.0,10.0,-100.00,WNW,289,8.0,19.0,13,0.00,,,0.00,7.000000,,2013-03-16 02:12:00,
2013-03-15 20:23:00,61.0,10.0,-100.00,WNW,289,8.0,19.0,13,0.00,,,0.00,7.000000,,2013-03-16 02:23:00,
2013-03-15 20:32:00,61.0,10.0,-100.00,WNW,289,8.0,19.0,13,0.00,,,0.00,7.000000,,2013-03-16 02:32:00,
2013-03-15 20:52:00,53.0,21.0,-100.00,NNE,16,4.0,8.0,28,0.00,,,0.00,0.000000,,2013-03-16 02:52:00,
2013-03-15 21:02:00,53.0,21.0,-100.00,NNE,16,4.0,8.0,28,0.00,,,0.00,0.000000,,2013-03-16 03:02:00,
2013-03-15 21:12:00,53.0,21.0,-100.00,NNE,16,4.0,8.0,28,0.00,,,0.00,0.000000,,2013-03-16 03:12:00,
2013-03-15 21:22:00,53.0,21.0,-100.00,NNE,16,4.0,8.0,28,0.00,,,0.00,0.000000,,2013-03-16 03:22:00,
2013-03-15 21:32:00,53.0,21.0,-100.00,NNE,16,4.0,8.0,28,0.00,,,0.00,0.000000,,2013-03-16 03:32:00,
2013-03-15 21:53:00,53.0,16.0,-100.00,SSE,160,2.0,6.0,23,0.00,,,0.00,0.000000,,2013-03-16 03:53:00,
2013-03-15 22:02:00,53.0,16.0,-100.00,SSE,160,2.0,6.0,23,0.00,,,0.00,0.000000,,2013-03-16 04:02:00,
2013-03-15 22:13:00,53.0,16.0,-100.00,SSE,160,2.0,6.0,23,0.00,,,0.00,0.000000,,2013-03-16 04:13:00,
2013-03-15 22:23:00,53.0,16.0,-100.00,SSE,160,2.0,6.0,23,0.00,,,0.00,0.000000,,2013-03-16 04:23:00,
2013-03-15 22:32:00,53.0,16.0,-100.00,SSE,160,2.0,6.0,23,0.00,,,0.00,0.000000,,2013-03-16 04:32:00,
2013-03-15 22:53:00,51.0,16.0,-100.00,South,169,4.0,6.0,25,0.00,,,0.00,0.000000,,2013-03-16 04:53:00,
2013-03-15 23:02:00,51.0,16.0,-100.00,South,169,4.0,6.0,25,0.00,,,0.00,0.000000,,2013-03-16 05:02:00,
2013-03-15 23:12:00,51.0,16.0,-100.00,South,169,4.0,6.0,25,0.00,,,0.00,0.000000,,2013-03-16 05:12:00,
2013-03-15 23:22:00,51.0,16.0,-100.00,South,169,4.0,6.0,25,0.00,,,0.00,0.000000,,2013-03-16 05:22:00,
2013-03-15 23:32:00,51.0,16.0,-100.00,South,169,4.0,6.0,25,0.00,,,0.00,0.000000,,2013-03-16 05:32:00,
2013-03-15 23:53:00,44.0,19.0,-100.00,ESE,119,6.0,8.0,36,0.00,,,0.00,0.000000,,2013-03-16 05:53:00,